Time;durP1;ratioP1;P1;durP2;ratioP2;P2;SDS_P1;SDS_P2;PMS_P1;PMS_P2;Temp;Humidity;BMP_temperature;BMP_pressure;BME280_temperature;BME280_humidity;BME280_pressure;Samples;Min_cycle;Max_cycle;Signal;HPM_P1;HPM_P2
2023/10/07 00:01:24;;;;;;;8.00;4.30;;;8.30;99.90;;;;;;4992073;28;20205;-68
2023/10/07 00:03:53;;;;;;;10.40;4.53;;;8.30;99.90;;;;;;4991799;28;20208;-68
2023/10/07 00:06:26;;;;;;;9.27;4.80;;;8.30;99.90;;;;;;5000008;28;20178;-69
2023/10/07 00:08:52;;;;;;;10.37;4.50;;;8.20;99.90;;;;;;4998372;28;20187;-69
2023/10/07 00:11:17;;;;;;;8.37;4.50;;;8.20;99.90;;;;;;4997078;28;20185;-69
2023/10/07 00:13:43;;;;;;;8.67;4.27;;;8.20;99.90;;;;;;5002246;28;20186;-68
2023/10/07 00:16:17;;;;;;;9.70;4.47;;;8.30;99.90;;;;;;4988144;28;20592;-69
2023/10/07 00:18:43;;;;;;;6.53;3.97;;;8.20;99.90;;;;;;4994387;28;20592;-69
2023/10/07 00:21:15;;;;;;;8.43;4.33;;;8.10;99.90;;;;;;5007472;28;20213;-69
2023/10/07 00:23:42;;;;;;;8.07;4.33;;;8.10;99.90;;;;;;4999734;28;20173;-68
2023/10/07 00:26:09;;;;;;;13.13;4.80;;;8.10;99.90;;;;;;4994433;28;20188;-69
2023/10/07 00:28:36;;;;;;;11.43;4.30;;;8.10;99.90;;;;;;4994887;28;20770;-69
2023/10/07 00:31:12;;;;;;;11.97;4.60;;;8.10;99.90;;;;;;5010471;28;20641;-69
2023/10/07 00:34:14;;;;;;;8.90;4.53;;;8.10;99.90;;;;;;5003080;28;20180;-68
2023/10/07 00:39:00;;;;;;;12.73;4.33;;;8.00;99.90;;;;;;4998521;28;20192;-69
2023/10/07 00:41:29;;;;;;;8.13;4.03;;;8.00;99.90;;;;;;4999497;28;20244;-69
2023/10/07 00:43:59;;;;;;;9.23;4.20;;;7.90;99.90;;;;;;4991342;28;20191;-69
2023/10/07 00:46:28;;;;;;;10.83;4.00;;;8.00;99.90;;;;;;4991422;28;20235;-68
2023/10/07 00:48:57;;;;;;;9.23;4.00;;;7.90;99.90;;;;;;5006684;28;20185;-69
2023/10/07 00:51:33;;;;;;;8.63;3.77;;;7.90;99.90;;;;;;4991121;28;20540;-70
2023/10/07 00:54:19;;;;;;;7.23;4.10;;;7.90;99.90;;;;;;5001813;28;20184;-69
2023/10/07 00:57:04;;;;;;;8.70;3.97;;;7.80;99.90;;;;;;5002452;28;20197;-69
2023/10/07 00:59:31;;;;;;;10.33;4.03;;;7.80;99.90;;;;;;5002038;28;20219;-69
2023/10/07 01:01:57;;;;;;;8.53;4.53;;;7.80;99.90;;;;;;4992079;28;20176;-69
2023/10/07 01:04:24;;;;;;;10.67;4.03;;;7.70;99.90;;;;;;5000000;28;20191;-70
2023/10/07 01:07:02;;;;;;;9.50;4.30;;;7.70;99.90;;;;;;4992642;28;20600;-68
2023/10/07 01:09:29;;;;;;;7.93;4.00;;;7.70;99.90;;;;;;4996851;28;20184;-68
2023/10/07 01:11:57;;;;;;;7.67;4.00;;;7.70;99.90;;;;;;4994039;28;20183;-69
2023/10/07 01:14:27;;;;;;;8.90;4.27;;;7.70;99.90;;;;;;5004876;28;20181;-69
2023/10/07 01:16:53;;;;;;;12.80;4.87;;;7.70;99.90;;;;;;4990603;28;20224;-69
2023/10/07 01:19:28;;;;;;;9.07;4.03;;;7.60;99.90;;;;;;4990154;28;20220;-69
2023/10/07 01:21:56;;;;;;;10.07;4.30;;;7.60;99.90;;;;;;4990769;28;20204;-69
2023/10/07 01:29:59;;;;;;;11.87;4.27;;;7.50;99.90;;;;;;4989927;28;20180;-69
2023/10/07 01:32:32;;;;;;;9.20;4.20;;;7.60;99.90;;;;;;4999046;28;20177;-69
2023/10/07 01:35:11;;;;;;;9.73;3.77;;;7.50;99.90;;;;;;4990654;28;20193;-69
2023/10/07 01:37:59;;;;;;;9.83;3.70;;;7.50;99.90;;;;;;4990744;28;20197;-70
2023/10/07 01:40:34;;;;;;;14.37;4.40;;;7.50;99.90;;;;;;4990607;28;20219;-69
2023/10/07 01:43:02;;;;;;;8.73;4.03;;;7.50;99.90;;;;;;4991332;28;20176;-69
2023/10/07 01:45:34;;;;;;;9.97;4.30;;;7.50;99.90;;;;;;4996928;28;20176;-69
2023/10/07 01:48:07;;;;;;;10.13;4.23;;;7.40;99.90;;;;;;5001840;28;20212;-69
2023/10/07 01:50:40;;;;;;;8.77;4.20;;;7.40;99.90;;;;;;4994661;28;20173;-69
2023/10/07 01:53:06;;;;;;;8.20;4.00;;;7.50;99.90;;;;;;5001870;28;20267;-69
2023/10/07 01:55:36;;;;;;;10.13;4.30;;;7.40;99.90;;;;;;5003243;28;20181;-69
2023/10/07 01:58:02;;;;;;;9.07;4.13;;;7.40;99.90;;;;;;4990299;28;20260;-69
2023/10/07 02:00:40;;;;;;;8.23;4.30;;;7.40;99.90;;;;;;4997958;28;20212;-69
2023/10/07 02:03:08;;;;;;;10.90;4.33;;;7.40;99.90;;;;;;5004054;28;20177;-69
2023/10/07 02:05:40;;;;;;;9.20;4.17;;;7.40;99.90;;;;;;4997740;28;20181;-69
2023/10/07 02:08:14;;;;;;;7.17;3.90;;;7.30;99.90;;;;;;4993288;28;20579;-69
2023/10/07 02:10:41;;;;;;;8.00;4.50;;;7.30;99.90;;;;;;4993584;28;20178;-70
2023/10/07 02:13:09;;;;;;;7.97;3.87;;;7.30;99.90;;;;;;5006512;28;20181;-69
2023/10/07 02:15:38;;;;;;;12.00;4.23;;;7.30;99.90;;;;;;4990485;28;20200;-69
2023/10/07 02:18:04;;;;;;;9.37;4.27;;;7.30;99.90;;;;;;4998272;28;20283;-69
2023/10/07 02:20:38;;;;;;;7.57;4.00;;;7.40;99.90;;;;;;4989748;28;20228;-69
2023/10/07 02:23:15;;;;;;;10.37;4.53;;;7.40;99.90;;;;;;5000914;28;20192;-68
2023/10/07 02:25:41;;;;;;;8.23;3.90;;;7.40;99.90;;;;;;5009944;28;20176;-69
2023/10/07 02:28:10;;;;;;;6.40;3.60;;;7.40;99.90;;;;;;4992640;28;20754;-69
2023/10/07 02:30:39;;;;;;;6.77;3.77;;;7.40;99.90;;;;;;5009442;28;20173;-69
2023/10/07 02:33:08;;;;;;;10.10;4.23;;;7.40;99.90;;;;;;4992915;28;20188;-69
2023/10/07 02:35:36;;;;;;;10.90;4.00;;;7.40;99.90;;;;;;5008720;28;20177;-69
2023/10/07 02:38:03;;;;;;;8.27;4.03;;;7.40;99.90;;;;;;4994347;28;20212;-69
2023/10/07 02:40:48;;;;;;;7.43;3.80;;;7.40;99.90;;;;;;5001076;28;20201;-69
2023/10/07 02:43:15;;;;;;;12.23;4.60;;;7.50;99.90;;;;;;4994781;28;20200;-68
2023/10/07 02:45:42;;;;;;;9.00;4.10;;;7.40;99.90;;;;;;4993660;28;20170;-69
2023/10/07 02:48:11;;;;;;;9.50;4.30;;;7.50;99.90;;;;;;4993537;28;20200;-69
2023/10/07 02:50:42;;;;;;;11.00;4.00;;;7.50;99.90;;;;;;5000964;28;20188;-69
2023/10/07 02:53:15;;;;;;;7.03;3.57;;;7.50;99.90;;;;;;4993748;28;20220;-69
2023/10/07 02:55:48;;;;;;;11.40;4.10;;;7.40;99.90;;;;;;5001363;28;20189;-68
2023/10/07 02:58:26;;;;;;;8.67;4.10;;;7.40;99.90;;;;;;5000534;28;20189;-69
2023/10/07 03:00:51;;;;;;;13.07;4.60;;;7.40;99.90;;;;;;4992774;28;20575;-69
2023/10/07 03:05:58;;;;;;;12.70;4.40;;;7.40;99.90;;;;;;4999931;28;20313;-69
2023/10/07 03:08:40;;;;;;;10.77;4.17;;;7.50;99.90;;;;;;4992703;28;20707;-69
2023/10/07 03:11:13;;;;;;;10.53;4.23;;;7.50;99.90;;;;;;5001325;28;20264;-69
2023/10/07 03:13:49;;;;;;;9.60;4.20;;;7.60;99.90;;;;;;5001294;28;20228;-69
2023/10/07 03:18:56;;;;;;;10.40;4.70;;;7.70;99.90;;;;;;4999854;28;20187;-68
2023/10/07 03:24:14;;;;;;;9.33;4.27;;;7.80;99.90;;;;;;4993166;28;20236;-69
2023/10/07 03:26:43;;;;;;;8.20;4.10;;;7.90;99.90;;;;;;5005687;28;20200;-70
2023/10/07 03:29:16;;;;;;;8.97;4.20;;;8.00;99.90;;;;;;4992389;28;20185;-69
2023/10/07 03:34:12;;;;;;;9.23;3.87;;;8.00;99.90;;;;;;5004178;28;20823;-69
2023/10/07 03:36:41;;;;;;;11.90;3.87;;;8.10;99.90;;;;;;4996824;28;20201;-69
2023/10/07 03:41:47;;;;;;;13.00;3.80;;;8.20;99.90;;;;;;5006957;28;20236;-70
2023/10/07 03:44:15;;;;;;;9.97;3.60;;;8.20;99.90;;;;;;4997186;28;20188;-69
2023/10/07 03:46:40;;;;;;;9.80;3.77;;;8.40;99.90;;;;;;5004101;28;20197;-70
2023/10/07 03:49:07;;;;;;;7.30;3.90;;;8.40;99.90;;;;;;5003013;28;20280;-69
2023/10/07 03:51:33;;;;;;;6.23;3.80;;;8.50;99.90;;;;;;5003588;28;20243;-69
2023/10/07 03:54:04;;;;;;;8.70;4.20;;;8.50;99.90;;;;;;5009687;28;20691;-69
2023/10/07 03:56:31;;;;;;;6.63;3.53;;;8.60;99.90;;;;;;4998549;28;20663;-69
2023/10/07 03:58:59;;;;;;;9.77;3.50;;;8.60;99.90;;;;;;4990979;28;20196;-69
2023/10/07 04:01:26;;;;;;;8.17;3.77;;;8.70;99.90;;;;;;4992103;28;21022;-69
2023/10/07 04:03:59;;;;;;;11.07;3.73;;;8.70;99.90;;;;;;4994215;28;20189;-69
2023/10/07 04:06:32;;;;;;;9.27;3.80;;;8.80;99.90;;;;;;4997530;28;20554;-69
2023/10/07 04:09:08;;;;;;;7.90;3.97;;;8.70;99.90;;;;;;5000047;28;20193;-68
2023/10/07 04:11:39;;;;;;;8.63;3.80;;;8.80;99.90;;;;;;4992262;28;20566;-69
2023/10/07 04:14:09;;;;;;;9.20;3.77;;;8.80;99.90;;;;;;4991643;28;20189;-69
2023/10/07 04:16:36;;;;;;;8.20;4.07;;;8.80;99.90;;;;;;4991700;28;20223;-69
2023/10/07 04:19:09;;;;;;;7.20;3.63;;;8.90;99.90;;;;;;4989431;28;20604;-69
2023/10/07 04:21:41;;;;;;;10.53;4.30;;;8.90;99.90;;;;;;4992476;28;20212;-70
2023/10/07 04:24:11;;;;;;;7.83;4.00;;;9.00;99.90;;;;;;4999821;28;20965;-69
2023/10/07 04:26:40;;;;;;;8.43;3.77;;;9.00;99.90;;;;;;5006999;28;20224;-69
2023/10/07 04:29:16;;;;;;;9.03;4.00;;;9.10;99.90;;;;;;5010552;28;20191;-69
2023/10/07 04:31:46;;;;;;;10.57;4.40;;;9.10;99.90;;;;;;4999399;28;20180;-69
2023/10/07 04:34:15;;;;;;;10.57;5.07;;;9.20;99.90;;;;;;4993949;28;20172;-70
2023/10/07 04:39:30;;;;;;;9.47;4.33;;;9.30;99.90;;;;;;5002652;28;20241;-69
2023/10/07 04:41:59;;;;;;;8.27;4.43;;;9.40;99.90;;;;;;5011032;28;20240;-69
2023/10/07 04:50:00;;;;;;;7.17;4.17;;;9.60;99.90;;;;;;5008690;28;20639;-69
2023/10/07 04:52:28;;;;;;;8.67;4.27;;;9.60;99.90;;;;;;5005161;28;20189;-70
2023/10/07 04:54:56;;;;;;;13.03;4.60;;;9.70;99.90;;;;;;4984098;28;20193;-69
2023/10/07 04:57:43;;;;;;;10.53;4.40;;;9.90;99.90;;;;;;5010724;28;20257;-70
2023/10/07 05:00:09;;;;;;;12.83;4.50;;;10.00;99.90;;;;;;5000880;28;20211;-70
2023/10/07 05:02:35;;;;;;;9.87;4.50;;;10.10;99.90;;;;;;4996880;28;20189;-69
2023/10/07 05:05:10;;;;;;;9.73;4.20;;;10.20;99.90;;;;;;5000417;28;20188;-69
2023/10/07 05:07:38;;;;;;;11.10;4.43;;;10.30;99.90;;;;;;5003457;28;20597;-69
2023/10/07 05:10:07;;;;;;;10.50;4.17;;;10.40;99.90;;;;;;5000903;28;20223;-69
2023/10/07 05:12:33;;;;;;;10.87;4.80;;;10.50;99.90;;;;;;5018685;28;20587;-69
2023/10/07 05:15:00;;;;;;;12.17;5.27;;;10.60;99.90;;;;;;5009196;28;20271;-69
2023/10/07 05:17:28;;;;;;;11.60;5.33;;;10.70;99.90;;;;;;4994232;28;20207;-70
2023/10/07 05:19:58;;;;;;;10.87;5.03;;;10.70;99.90;;;;;;4985546;28;20237;-70
2023/10/07 05:22:24;;;;;;;10.63;5.00;;;10.80;99.90;;;;;;5010585;28;20176;-69
2023/10/07 05:24:56;;;;;;;10.10;5.07;;;10.90;99.90;;;;;;5000559;28;20583;-69
2023/10/07 05:27:23;;;;;;;12.13;4.67;;;10.90;99.90;;;;;;4998148;28;20257;-69
2023/10/07 05:29:49;;;;;;;12.87;5.23;;;11.00;99.90;;;;;;5001567;28;20196;-69
2023/10/07 05:32:16;;;;;;;14.30;5.03;;;11.00;99.90;;;;;;5010406;28;20180;-70
2023/10/07 05:34:42;;;;;;;15.17;4.53;;;11.10;99.90;;;;;;5002277;28;20199;-69
2023/10/07 05:37:14;;;;;;;12.30;5.10;;;11.20;99.90;;;;;;5010457;28;20660;-69
2023/10/07 05:39:44;;;;;;;14.63;5.20;;;11.20;99.90;;;;;;5002098;28;20554;-70
2023/10/07 05:42:11;;;;;;;12.10;5.20;;;11.30;99.90;;;;;;4990883;28;20173;-70
2023/10/07 05:44:38;;;;;;;17.30;6.00;;;11.30;99.90;;;;;;5006011;28;20184;-70
2023/10/07 05:47:05;;;;;;;9.50;4.70;;;11.40;99.90;;;;;;5010104;28;20204;-70
2023/10/07 05:49:31;;;;;;;13.60;5.13;;;11.50;99.90;;;;;;5003386;28;20239;-69
2023/10/07 05:51:58;;;;;;;11.90;5.03;;;11.60;99.90;;;;;;5000420;28;20184;-69
2023/10/07 05:54:28;;;;;;;14.53;6.23;;;11.60;99.90;;;;;;5002387;28;20212;-70
2023/10/07 05:56:58;;;;;;;16.40;6.30;;;11.70;99.90;;;;;;5010001;28;20254;-70
2023/10/07 05:59:24;;;;;;;15.30;6.95;;;11.80;99.90;;;;;;4994796;28;20897;-70
2023/10/07 06:01:49;;;;;;;13.80;6.10;;;11.90;99.90;;;;;;5005626;28;20188;-70
2023/10/07 06:04:15;;;;;;;12.17;5.40;;;12.00;99.90;;;;;;5001956;28;20180;-69
2023/10/07 06:06:43;;;;;;;10.73;5.13;;;12.00;99.90;;;;;;5001504;28;20220;-69
2023/10/07 06:09:14;;;;;;;20.17;7.20;;;12.10;99.90;;;;;;5012593;28;20272;-70
2023/10/07 06:11:42;;;;;;;17.30;6.30;;;12.10;99.90;;;;;;4997566;28;20531;-70
2023/10/07 06:14:10;;;;;;;22.40;6.53;;;12.20;99.90;;;;;;5001586;28;20181;-70
2023/10/07 06:16:36;;;;;;;22.43;7.23;;;12.20;99.90;;;;;;5001726;28;20205;-70
2023/10/07 06:19:02;;;;;;;15.50;7.00;;;12.30;99.90;;;;;;5006845;28;20515;-70
2023/10/07 06:21:28;;;;;;;13.50;6.23;;;12.30;99.90;;;;;;4993705;28;20302;-70
2023/10/07 06:23:58;;;;;;;18.30;6.57;;;12.40;99.90;;;;;;4996787;28;20671;-70
2023/10/07 06:26:24;;;;;;;14.80;6.50;;;12.40;99.90;;;;;;4996980;28;20188;-70
2023/10/07 06:28:51;;;;;;;15.13;6.37;;;12.40;99.90;;;;;;5003255;28;20191;-70
2023/10/07 06:31:28;;;;;;;14.17;5.57;;;12.40;99.90;;;;;;5005834;28;20197;-69
2023/10/07 06:34:00;;;;;;;14.67;5.90;;;12.60;99.90;;;;;;4995742;28;20669;-69
2023/10/07 06:36:27;;;;;;;17.10;6.07;;;12.60;99.90;;;;;;5005542;28;20254;-69
2023/10/07 06:38:53;;;;;;;16.47;5.93;;;12.70;99.90;;;;;;5012030;28;20679;-69
2023/10/07 06:41:20;;;;;;;11.53;5.43;;;12.70;99.90;;;;;;5004508;28;20193;-69
2023/10/07 06:43:53;;;;;;;15.53;5.63;;;12.80;99.90;;;;;;5012635;28;20176;-68
2023/10/07 06:46:20;;;;;;;12.90;5.13;;;12.80;99.90;;;;;;5007869;28;20637;-69
2023/10/07 06:48:49;;;;;;;14.43;5.57;;;12.90;99.90;;;;;;5008451;28;20179;-68
2023/10/07 06:51:15;;;;;;;16.07;5.73;;;13.00;99.90;;;;;;5004525;28;20180;-69
2023/10/07 06:53:45;;;;;;;14.17;5.33;;;13.10;99.90;;;;;;5004483;28;20279;-69
2023/10/07 06:56:21;;;;;;;16.20;4.93;;;13.20;99.90;;;;;;5004318;28;20200;-69
2023/10/07 06:58:54;;;;;;;11.40;4.83;;;13.30;99.90;;;;;;4993945;28;20240;-68
2023/10/07 07:01:35;;;;;;;10.43;4.97;;;13.30;99.90;;;;;;5012327;28;20204;-69
2023/10/07 07:04:09;;;;;;;12.67;4.63;;;13.40;99.90;;;;;;5012153;28;20259;-68
2023/10/07 07:06:42;;;;;;;14.97;4.93;;;13.50;99.90;;;;;;5011994;28;20274;-69
2023/10/07 07:09:41;;;;;;;14.87;5.33;;;13.50;99.90;;;;;;4995150;28;20196;-69
2023/10/07 07:11:57;;;;;;;10.97;4.53;;;13.60;99.90;;;;;;5002328;28;20201;-69
2023/10/07 07:14:28;;;;;;;12.37;5.10;;;13.80;99.90;;;;;;4997497;28;20180;-69
2023/10/07 07:16:56;;;;;;;9.50;4.47;;;13.90;99.90;;;;;;5002522;28;20199;-69
2023/10/07 07:19:23;;;;;;;13.00;5.50;;;14.00;99.90;;;;;;5009309;28;20677;-69
2023/10/07 07:21:49;;;;;;;18.80;6.63;;;14.10;99.90;;;;;;4981628;28;20387;-69
2023/10/07 07:24:18;;;;;;;10.43;4.80;;;14.30;99.90;;;;;;5011945;28;20267;-69
2023/10/07 07:26:52;;;;;;;10.50;4.57;;;14.50;99.90;;;;;;4987692;28;20205;-69
2023/10/07 07:29:22;;;;;;;11.03;4.97;;;14.60;99.90;;;;;;4988930;28;20181;-69
2023/10/07 07:31:48;;;;;;;13.67;4.40;;;14.80;99.90;;;;;;5011810;28;20192;-69
2023/10/07 07:34:24;;;;;;;8.60;4.30;;;14.90;99.90;;;;;;5006432;28;20191;-69
2023/10/07 07:36:59;;;;;;;10.73;4.50;;;15.00;99.90;;;;;;5000053;28;20587;-69
2023/10/07 07:39:29;;;;;;;10.40;4.53;;;15.10;99.90;;;;;;5004950;28;20188;-70
2023/10/07 07:41:55;;;;;;;11.07;5.40;;;15.20;99.90;;;;;;5001754;28;20655;-69
2023/10/07 07:44:32;;;;;;;13.23;4.30;;;15.30;99.90;;;;;;4988588;28;20228;-70
2023/10/07 07:46:59;;;;;;;9.77;4.87;;;15.40;99.90;;;;;;5001492;28;20205;-68
2023/10/07 07:49:27;;;;;;;10.73;4.67;;;15.50;99.90;;;;;;5005585;28;20211;-69
2023/10/07 07:51:53;;;;;;;14.20;4.70;;;15.50;99.90;;;;;;5003219;28;20188;-70
2023/10/07 07:54:19;;;;;;;9.10;4.00;;;15.60;99.90;;;;;;5002991;28;20185;-68
2023/10/07 07:56:46;;;;;;;10.80;4.10;;;15.80;99.90;;;;;;5011178;28;20200;-68
2023/10/07 07:59:15;;;;;;;13.57;3.97;;;15.80;99.90;;;;;;5010514;28;20173;-69
2023/10/07 08:01:50;;;;;;;10.23;3.47;;;16.00;99.90;;;;;;5011174;28;20283;-69
2023/10/07 08:04:37;;;;;;;11.77;4.07;;;16.00;99.90;;;;;;5007243;28;20177;-68
2023/10/07 08:07:16;;;;;;;10.17;3.03;;;16.10;99.90;;;;;;4999383;28;20753;-68
2023/10/07 08:09:44;;;;;;;5.93;2.87;;;16.20;99.90;;;;;;4990617;28;20552;-68
2023/10/07 08:12:10;;;;;;;9.53;3.60;;;16.20;99.90;;;;;;4999741;28;20260;-68
2023/10/07 08:14:37;;;;;;;8.70;3.70;;;16.20;99.90;;;;;;4998062;28;20236;-68
2023/10/07 08:17:08;;;;;;;13.40;3.57;;;16.30;99.90;;;;;;5002547;28;20569;-68
2023/10/07 08:19:35;;;;;;;8.00;3.30;;;16.30;99.90;;;;;;5010195;28;20238;-68
2023/10/07 08:22:03;;;;;;;10.00;3.30;;;16.20;99.90;;;;;;5000958;28;20181;-68
2023/10/07 08:24:31;;;;;;;9.07;3.37;;;16.20;99.90;;;;;;5005169;28;20770;-68
2023/10/07 08:27:03;;;;;;;9.07;3.50;;;16.20;99.90;;;;;;5010516;28;20286;-68
2023/10/07 08:29:32;;;;;;;13.23;3.10;;;16.20;99.90;;;;;;4993024;28;20223;-68
2023/10/07 08:32:29;;;;;;;5.63;2.90;;;16.30;99.90;;;;;;5002067;28;20247;-67
2023/10/07 08:34:52;;;;;;;9.33;2.67;;;16.40;99.90;;;;;;4994037;28;20197;-70
2023/10/07 08:37:18;;;;;;;16.53;4.43;;;16.50;99.90;;;;;;5002392;28;20310;-69
2023/10/07 08:39:47;;;;;;;11.20;3.33;;;16.50;99.90;;;;;;5009843;28;20368;-67
2023/10/07 08:42:24;;;;;;;7.57;3.27;;;16.60;99.90;;;;;;4994716;28;20177;-68
2023/10/07 08:44:53;;;;;;;17.93;9.53;;;16.50;99.90;;;;;;4985018;28;20236;-72
2023/10/07 08:47:21;;;;;;;11.47;5.37;;;16.60;99.90;;;;;;4995977;28;20197;-71
2023/10/07 08:49:48;;;;;;;9.30;4.30;;;16.70;99.90;;;;;;5001154;28;20177;-70
2023/10/07 08:52:16;;;;;;;7.80;3.13;;;16.80;99.90;;;;;;4984262;28;20263;-68
2023/10/07 08:54:44;;;;;;;5.90;3.27;;;16.80;99.90;;;;;;4996385;28;20648;-68
2023/10/07 08:57:22;;;;;;;9.77;3.30;;;16.80;99.90;;;;;;4998673;28;20203;-67
2023/10/07 08:59:52;;;;;;;8.53;3.43;;;16.90;99.90;;;;;;4996422;28;20658;-67
2023/10/07 09:02:30;;;;;;;10.07;3.97;;;17.00;99.90;;;;;;5001654;28;20169;-67
2023/10/07 09:05:05;;;;;;;8.37;3.20;;;16.90;99.90;;;;;;4979927;28;20174;-66
2023/10/07 09:07:32;;;;;;;8.23;3.07;;;16.90;99.90;;;;;;4998429;28;20208;-68
2023/10/07 09:10:13;;;;;;;7.43;3.30;;;17.10;99.90;;;;;;4999339;28;20242;-68
2023/10/07 09:12:45;;;;;;;5.90;2.90;;;17.10;99.90;;;;;;5003089;28;20191;-68
2023/10/07 09:15:26;;;;;;;6.93;2.90;;;17.10;99.90;;;;;;5003259;28;20184;-69
2023/10/07 09:18:03;;;;;;;8.43;2.67;;;17.20;99.90;;;;;;4995896;28;20280;-68
2023/10/07 09:20:31;;;;;;;6.23;3.10;;;17.20;99.90;;;;;;4996715;28;20254;-69
2023/10/07 09:23:07;;;;;;;7.17;3.00;;;17.30;99.90;;;;;;5004445;28;20187;-68
2023/10/07 09:25:33;;;;;;;8.43;3.27;;;17.40;99.90;;;;;;4982623;28;20263;-68
2023/10/07 09:28:01;;;;;;;8.83;3.23;;;17.60;99.90;;;;;;4999765;28;20697;-68
2023/10/07 09:30:37;;;;;;;9.60;4.83;;;17.70;99.90;;;;;;5001197;28;20176;-68
2023/10/07 09:33:12;;;;;;;7.20;3.43;;;17.80;99.90;;;;;;5015378;28;20180;-69
2023/10/07 09:35:41;;;;;;;6.30;2.67;;;17.90;99.90;;;;;;5002907;28;20172;-68
2023/10/07 09:38:12;;;;;;;7.47;2.60;;;18.00;99.90;;;;;;5009132;28;20532;-69
2023/10/07 09:43:47;;;;;;;6.43;2.47;;;18.00;99.90;;;;;;4995143;28;20212;-68
2023/10/07 09:46:15;;;;;;;8.43;2.40;;;18.10;99.90;;;;;;5005684;28;20175;-68
2023/10/07 09:48:42;;;;;;;9.30;2.67;;;18.10;99.90;;;;;;5012932;28;20191;-68
2023/10/07 09:51:25;;;;;;;8.67;2.47;;;18.00;99.90;;;;;;5013372;28;20302;-69
2023/10/07 09:53:50;;;;;;;5.93;2.47;;;17.90;99.90;;;;;;5013304;28;20557;-68
2023/10/07 09:56:43;;;;;;;8.20;2.80;;;18.00;99.90;;;;;;5000614;28;20181;-68
2023/10/07 09:59:40;;;;;;;8.73;3.27;;;18.00;99.90;;;;;;5012353;28;20271;-68
2023/10/07 10:02:25;;;;;;;4.77;2.30;;;18.00;99.90;;;;;;5005145;28;20185;-68
2023/10/07 10:05:11;;;;;;;7.60;2.17;;;18.10;99.90;;;;;;5005236;28;20263;-68
2023/10/07 10:07:43;;;;;;;5.10;2.07;;;18.30;99.90;;;;;;5006280;28;20243;-67
2023/10/07 10:10:14;;;;;;;9.27;2.30;;;18.50;99.90;;;;;;5012474;28;20231;-68
2023/10/07 10:17:55;;;;;;;5.40;2.07;;;19.10;99.90;;;;;;5004784;28;20205;-68
2023/10/07 10:20:27;;;;;;;5.93;2.00;;;19.10;99.90;;;;;;4998947;28;20207;-68
2023/10/07 10:22:57;;;;;;;6.13;2.10;;;19.10;99.90;;;;;;5004744;28;20550;-68
2023/10/07 10:25:33;;;;;;;5.63;2.00;;;19.00;99.90;;;;;;5008186;28;20177;-68
2023/10/07 10:28:02;;;;;;;4.20;1.90;;;18.90;99.90;;;;;;5010920;28;20343;-68
2023/10/07 10:30:29;;;;;;;4.57;1.80;;;19.00;99.90;;;;;;5001530;28;20178;-68
2023/10/07 10:32:58;;;;;;;4.40;1.77;;;19.00;99.90;;;;;;5007166;28;20214;-69
2023/10/07 10:35:24;;;;;;;4.97;2.00;;;19.00;99.90;;;;;;5006627;28;20286;-67
2023/10/07 10:37:55;;;;;;;6.80;2.43;;;19.30;99.90;;;;;;4995987;28;20209;-68
2023/10/07 10:40:21;;;;;;;5.20;2.10;;;19.70;99.90;;;;;;5005308;28;20197;-69
2023/10/07 10:42:49;;;;;;;4.57;1.90;;;20.20;99.90;;;;;;5012590;28;20557;-69
2023/10/07 10:45:24;;;;;;;3.10;1.60;;;20.60;99.90;;;;;;4989104;28;20177;-68
2023/10/07 10:47:52;;;;;;;6.80;2.33;;;21.00;99.90;;;;;;4988132;28;20389;-67
2023/10/07 10:50:20;;;;;;;5.67;1.83;;;21.40;99.90;;;;;;5004064;28;20180;-68
2023/10/07 10:52:49;;;;;;;4.87;1.83;;;21.40;99.90;;;;;;5004036;28;20181;-67
2023/10/07 10:55:18;;;;;;;5.30;2.10;;;21.50;99.90;;;;;;4996770;28;20211;-67
2023/10/07 10:57:44;;;;;;;5.70;1.90;;;21.40;99.90;;;;;;4996155;28;20212;-67
2023/10/07 11:00:19;;;;;;;4.53;2.00;;;21.50;99.90;;;;;;4999648;28;20209;-69
2023/10/07 11:02:46;;;;;;;3.03;1.60;;;21.60;99.90;;;;;;5008545;28;20191;-69
2023/10/07 11:05:12;;;;;;;6.77;2.23;;;21.60;99.90;;;;;;5000855;28;20181;-69
2023/10/07 11:07:39;;;;;;;4.20;2.03;;;21.60;99.90;;;;;;4992448;28;20308;-68
2023/10/07 11:10:08;;;;;;;6.83;2.23;;;21.70;99.90;;;;;;5007856;28;20246;-68
2023/10/07 11:12:33;;;;;;;5.10;2.00;;;21.80;99.90;;;;;;4984512;28;20193;-71
2023/10/07 11:15:12;;;;;;;4.13;1.80;;;21.90;99.90;;;;;;5000485;28;20791;-69
2023/10/07 11:17:51;;;;;;;3.57;1.80;;;22.00;99.90;;;;;;5007551;28;20557;-69
2023/10/07 11:20:19;;;;;;;3.73;1.50;;;22.00;99.90;;;;;;4988229;28;20220;-69
2023/10/07 11:22:46;;;;;;;2.93;1.43;;;22.20;99.90;;;;;;5026884;28;20177;-68
2023/10/07 11:25:14;;;;;;;2.87;1.73;;;22.10;99.90;;;;;;5003696;28;20176;-69
2023/10/07 11:27:43;;;;;;;5.43;1.67;;;22.10;99.90;;;;;;5003540;28;20674;-69
2023/10/07 11:30:14;;;;;;;3.57;1.30;;;22.30;99.90;;;;;;5002740;28;20214;-68
2023/10/07 11:32:43;;;;;;;4.03;1.57;;;22.20;99.90;;;;;;5003517;28;20195;-68
2023/10/07 11:35:16;;;;;;;4.33;1.40;;;22.30;99.90;;;;;;5003270;28;20550;-69
2023/10/07 11:38:02;;;;;;;4.30;1.60;;;22.30;99.90;;;;;;4997220;28;20217;-69
2023/10/07 11:40:31;;;;;;;2.27;1.30;;;22.30;99.90;;;;;;4990450;28;20667;-70
2023/10/07 11:43:04;;;;;;;3.93;1.50;;;22.50;99.90;;;;;;4994143;28;20547;-68
2023/10/07 11:45:31;;;;;;;4.63;1.97;;;22.50;99.90;;;;;;4997595;28;20204;-72
2023/10/07 11:47:57;;;;;;;4.37;1.63;;;22.50;99.90;;;;;;5011183;28;20295;-68
2023/10/07 11:50:31;;;;;;;5.87;1.60;;;22.60;99.90;;;;;;5002063;28;20182;-68
2023/10/07 11:53:00;;;;;;;4.50;1.67;;;22.80;99.90;;;;;;4989458;28;20524;-68
2023/10/07 11:55:27;;;;;;;5.27;1.63;;;22.50;99.90;;;;;;5003218;28;20683;-68
2023/10/07 11:57:52;;;;;;;4.13;1.70;;;22.50;99.90;;;;;;4994828;28;20285;-69
2023/10/07 12:00:28;;;;;;;3.40;1.83;;;22.70;99.90;;;;;;5010804;28;20208;-69
2023/10/07 12:02:57;;;;;;;3.80;1.63;;;22.70;99.90;;;;;;5011136;28;20661;-67
2023/10/07 12:05:27;;;;;;;5.37;1.83;;;22.70;99.90;;;;;;5006675;28;20220;-71
2023/10/07 12:07:55;;;;;;;4.63;2.30;;;22.90;99.90;;;;;;5007677;28;20220;-70
2023/10/07 12:10:22;;;;;;;5.23;1.90;;;22.90;99.90;;;;;;5010690;28;20181;-70
2023/10/07 12:12:49;;;;;;;5.17;2.10;;;23.10;99.90;;;;;;5002820;28;20277;-69
2023/10/07 12:15:17;;;;;;;4.17;2.00;;;23.00;99.90;;;;;;5007378;28;20714;-71
2023/10/07 12:17:46;;;;;;;6.43;2.63;;;23.10;99.90;;;;;;4999129;28;20567;-72
2023/10/07 12:20:12;;;;;;;5.03;2.03;;;23.30;99.90;;;;;;5009856;28;20275;-69
2023/10/07 12:22:42;;;;;;;3.93;2.30;;;23.50;99.90;;;;;;5010832;28;20176;-69
2023/10/07 12:25:18;;;;;;;5.50;2.00;;;23.50;99.90;;;;;;4999829;28;20177;-68
2023/10/07 12:27:48;;;;;;;4.53;1.80;;;23.50;99.90;;;;;;4991024;28;20224;-68
2023/10/07 12:30:20;;;;;;;4.53;1.83;;;23.60;99.90;;;;;;5001850;28;20184;-69
2023/10/07 12:32:48;;;;;;;5.73;2.10;;;23.60;99.90;;;;;;5002832;28;20669;-69
2023/10/07 12:35:14;;;;;;;4.50;2.20;;;23.50;99.90;;;;;;5006970;28;20175;-68
2023/10/07 12:37:41;;;;;;;5.60;2.23;;;23.50;99.90;;;;;;4990944;28;20217;-68
2023/10/07 12:40:11;;;;;;;4.57;2.00;;;23.50;99.90;;;;;;5008783;28;20252;-71
2023/10/07 12:42:41;;;;;;;7.10;2.13;;;23.30;99.90;;;;;;5010577;28;20816;-71
2023/10/07 12:45:08;;;;;;;6.87;2.30;;;23.20;99.90;;;;;;4999795;28;20181;-70
2023/10/07 12:47:34;;;;;;;5.13;2.17;;;23.20;99.90;;;;;;4998834;28;20206;-68
2023/10/07 12:52:52;;;;;;;6.50;2.40;;;23.20;99.90;;;;;;4994363;28;20196;-70
2023/10/07 12:55:18;;;;;;;7.47;2.30;;;23.00;99.90;;;;;;5006161;28;20188;-69
2023/10/07 12:57:44;;;;;;;8.93;2.80;;;23.10;99.90;;;;;;5006049;28;20201;-68
2023/10/07 13:00:21;;;;;;;4.33;2.07;;;23.20;99.90;;;;;;5009562;28;20207;-68
2023/10/07 13:02:50;;;;;;;7.13;2.20;;;23.20;99.90;;;;;;4986454;28;20653;-68
2023/10/07 13:05:20;;;;;;;6.17;2.27;;;23.30;99.90;;;;;;4994350;28;20675;-68
2023/10/07 13:07:53;;;;;;;7.20;2.20;;;23.10;99.90;;;;;;5002436;28;20215;-67
2023/10/07 13:10:20;;;;;;;6.63;2.50;;;23.10;99.90;;;;;;4986815;28;20289;-68
2023/10/07 13:12:55;;;;;;;4.90;2.30;;;22.90;99.90;;;;;;4994746;28;20182;-68
2023/10/07 13:15:30;;;;;;;5.23;2.30;;;22.70;99.90;;;;;;4991203;28;20168;-68
2023/10/07 13:17:58;;;;;;;6.13;2.60;;;22.60;99.90;;;;;;4991016;28;20297;-68
2023/10/07 13:20:26;;;;;;;6.03;2.47;;;22.60;99.90;;;;;;5009391;28;20649;-68
2023/10/07 13:22:53;;;;;;;4.70;2.30;;;22.60;99.90;;;;;;5009696;28;20184;-67
2023/10/07 13:25:19;;;;;;;7.93;2.33;;;22.80;99.90;;;;;;5005943;28;20582;-67
2023/10/07 13:27:46;;;;;;;5.83;2.50;;;22.70;99.90;;;;;;5005758;28;20216;-68
2023/10/07 13:30:13;;;;;;;4.50;2.13;;;22.80;99.90;;;;;;5001043;28;20180;-67
2023/10/07 13:32:47;;;;;;;8.33;2.47;;;23.00;99.90;;;;;;5009819;28;20271;-67
2023/10/07 13:35:19;;;;;;;4.50;2.40;;;23.20;99.90;;;;;;5001486;28;20259;-67
2023/10/07 13:37:46;;;;;;;5.20;2.40;;;23.30;99.90;;;;;;5001664;28;20694;-66
2023/10/07 13:40:16;;;;;;;7.33;2.63;;;23.50;99.90;;;;;;5000709;28;20206;-67
2023/10/07 13:42:49;;;;;;;9.43;2.63;;;23.50;99.90;;;;;;5009759;28;20681;-67